sensor_id;sensor_type;location;lat;lon;timestamp;P1;durP1;ratioP1;P2;durP2;ratioP2
4377;SDS011;2203;53.686;9.994;2022-12-10T00:01:59;75.83;;;27.33;;
4377;SDS011;2203;53.686;9.994;2022-12-10T00:04:24;68.83;;;27.90;;
4377;SDS011;2203;53.686;9.994;2022-12-10T00:06:49;64.97;;;27.37;;
4377;SDS011;2203;53.686;9.994;2022-12-10T00:09:16;70.33;;;28.63;;
4377;SDS011;2203;53.686;9.994;2022-12-10T00:11:42;69.67;;;27.80;;
4377;SDS011;2203;53.686;9.994;2022-12-10T00:14:08;74.93;;;28.53;;
4377;SDS011;2203;53.686;9.994;2022-12-10T00:16:34;62.10;;;26.23;;
4377;SDS011;2203;53.686;9.994;2022-12-10T00:18:59;63.03;;;26.20;;
4377;SDS011;2203;53.686;9.994;2022-12-10T00:21:26;67.43;;;26.53;;
4377;SDS011;2203;53.686;9.994;2022-12-10T00:23:54;67.30;;;27.77;;
4377;SDS011;2203;53.686;9.994;2022-12-10T00:26:24;63.80;;;26.30;;
4377;SDS011;2203;53.686;9.994;2022-12-10T00:28:51;63.33;;;25.57;;
4377;SDS011;2203;53.686;9.994;2022-12-10T00:33:47;59.47;;;24.37;;
4377;SDS011;2203;53.686;9.994;2022-12-10T00:36:15;73.73;;;27.20;;
4377;SDS011;2203;53.686;9.994;2022-12-10T00:38:42;67.83;;;26.13;;
4377;SDS011;2203;53.686;9.994;2022-12-10T00:41:08;73.60;;;27.20;;
4377;SDS011;2203;53.686;9.994;2022-12-10T00:43:33;73.13;;;26.90;;
4377;SDS011;2203;53.686;9.994;2022-12-10T00:45:59;66.30;;;26.70;;
4377;SDS011;2203;53.686;9.994;2022-12-10T00:48:25;57.83;;;25.43;;
4377;SDS011;2203;53.686;9.994;2022-12-10T00:53:22;77.43;;;28.40;;
4377;SDS011;2203;53.686;9.994;2022-12-10T00:55:48;52.80;;;21.47;;
4377;SDS011;2203;53.686;9.994;2022-12-10T00:58:14;51.27;;;21.07;;
4377;SDS011;2203;53.686;9.994;2022-12-10T01:00:39;58.67;;;23.60;;
4377;SDS011;2203;53.686;9.994;2022-12-10T01:03:04;66.93;;;25.80;;
4377;SDS011;2203;53.686;9.994;2022-12-10T01:05:30;61.27;;;24.50;;
4377;SDS011;2203;53.686;9.994;2022-12-10T01:07:55;60.80;;;25.20;;
4377;SDS011;2203;53.686;9.994;2022-12-10T01:10:20;64.60;;;25.77;;
4377;SDS011;2203;53.686;9.994;2022-12-10T01:12:46;59.57;;;24.83;;
4377;SDS011;2203;53.686;9.994;2022-12-10T01:15:11;60.60;;;21.33;;
4377;SDS011;2203;53.686;9.994;2022-12-10T01:17:37;63.93;;;23.00;;
4377;SDS011;2203;53.686;9.994;2022-12-10T01:20:02;49.50;;;21.20;;
4377;SDS011;2203;53.686;9.994;2022-12-10T01:22:28;55.70;;;22.13;;
4377;SDS011;2203;53.686;9.994;2022-12-10T01:24:53;51.97;;;20.80;;
4377;SDS011;2203;53.686;9.994;2022-12-10T01:27:19;45.23;;;20.63;;
4377;SDS011;2203;53.686;9.994;2022-12-10T01:29:44;46.73;;;18.90;;
4377;SDS011;2203;53.686;9.994;2022-12-10T01:32:10;44.10;;;18.00;;
4377;SDS011;2203;53.686;9.994;2022-12-10T01:34:35;39.20;;;17.47;;
4377;SDS011;2203;53.686;9.994;2022-12-10T01:37:00;38.13;;;16.07;;
4377;SDS011;2203;53.686;9.994;2022-12-10T01:39:26;41.37;;;17.20;;
4377;SDS011;2203;53.686;9.994;2022-12-10T01:41:53;41.90;;;18.03;;
4377;SDS011;2203;53.686;9.994;2022-12-10T01:46:49;47.30;;;19.10;;
4377;SDS011;2203;53.686;9.994;2022-12-10T01:49:25;43.40;;;19.10;;
4377;SDS011;2203;53.686;9.994;2022-12-10T01:52:00;43.23;;;19.50;;
4377;SDS011;2203;53.686;9.994;2022-12-10T01:54:28;38.00;;;17.53;;
4377;SDS011;2203;53.686;9.994;2022-12-10T01:59:33;45.90;;;16.07;;
4377;SDS011;2203;53.686;9.994;2022-12-10T02:04:47;32.77;;;14.50;;
4377;SDS011;2203;53.686;9.994;2022-12-10T02:15:33;26.00;;;12.20;;
4377;SDS011;2203;53.686;9.994;2022-12-10T02:18:09;27.73;;;12.80;;
4377;SDS011;2203;53.686;9.994;2022-12-10T02:20:43;25.23;;;12.17;;
4377;SDS011;2203;53.686;9.994;2022-12-10T02:23:56;23.40;;;11.57;;
4377;SDS011;2203;53.686;9.994;2022-12-10T02:26:06;27.70;;;11.50;;
4377;SDS011;2203;53.686;9.994;2022-12-10T02:31:03;21.23;;;10.90;;
4377;SDS011;2203;53.686;9.994;2022-12-10T02:33:29;20.17;;;9.90;;
4377;SDS011;2203;53.686;9.994;2022-12-10T02:35:56;27.70;;;11.60;;
4377;SDS011;2203;53.686;9.994;2022-12-10T02:38:24;22.57;;;11.67;;
4377;SDS011;2203;53.686;9.994;2022-12-10T02:40:53;22.23;;;10.73;;
4377;SDS011;2203;53.686;9.994;2022-12-10T02:43:22;21.67;;;10.77;;
4377;SDS011;2203;53.686;9.994;2022-12-10T02:45:48;25.43;;;12.27;;
4377;SDS011;2203;53.686;9.994;2022-12-10T02:48:15;26.80;;;11.33;;
4377;SDS011;2203;53.686;9.994;2022-12-10T02:50:40;24.97;;;11.07;;
4377;SDS011;2203;53.686;9.994;2022-12-10T02:53:06;31.80;;;12.50;;
4377;SDS011;2203;53.686;9.994;2022-12-10T02:55:37;26.57;;;11.70;;
4377;SDS011;2203;53.686;9.994;2022-12-10T02:58:15;25.17;;;10.70;;
4377;SDS011;2203;53.686;9.994;2022-12-10T03:01:13;24.70;;;10.50;;
4377;SDS011;2203;53.686;9.994;2022-12-10T03:03:53;18.80;;;9.87;;
4377;SDS011;2203;53.686;9.994;2022-12-10T03:06:32;20.13;;;10.20;;
4377;SDS011;2203;53.686;9.994;2022-12-10T03:09:11;23.53;;;10.50;;
4377;SDS011;2203;53.686;9.994;2022-12-10T03:11:41;24.93;;;10.67;;
4377;SDS011;2203;53.686;9.994;2022-12-10T03:14:15;23.80;;;11.87;;
4377;SDS011;2203;53.686;9.994;2022-12-10T03:16:45;27.60;;;11.70;;
4377;SDS011;2203;53.686;9.994;2022-12-10T03:19:15;21.30;;;10.60;;
4377;SDS011;2203;53.686;9.994;2022-12-10T03:21:42;21.83;;;10.80;;
4377;SDS011;2203;53.686;9.994;2022-12-10T03:24:09;19.97;;;10.57;;
4377;SDS011;2203;53.686;9.994;2022-12-10T03:26:36;21.90;;;9.87;;
4377;SDS011;2203;53.686;9.994;2022-12-10T03:29:04;24.83;;;11.67;;
4377;SDS011;2203;53.686;9.994;2022-12-10T03:31:31;22.90;;;10.73;;
4377;SDS011;2203;53.686;9.994;2022-12-10T03:33:58;22.30;;;11.03;;
4377;SDS011;2203;53.686;9.994;2022-12-10T03:36:23;24.37;;;11.60;;
4377;SDS011;2203;53.686;9.994;2022-12-10T03:38:49;24.83;;;11.20;;
4377;SDS011;2203;53.686;9.994;2022-12-10T03:41:14;26.43;;;11.07;;
4377;SDS011;2203;53.686;9.994;2022-12-10T03:43:50;22.73;;;10.27;;
4377;SDS011;2203;53.686;9.994;2022-12-10T03:46:19;20.03;;;10.23;;
4377;SDS011;2203;53.686;9.994;2022-12-10T03:48:45;22.63;;;11.33;;
4377;SDS011;2203;53.686;9.994;2022-12-10T03:51:10;26.30;;;11.77;;
4377;SDS011;2203;53.686;9.994;2022-12-10T03:53:36;26.10;;;11.53;;
4377;SDS011;2203;53.686;9.994;2022-12-10T03:56:01;25.17;;;11.70;;
4377;SDS011;2203;53.686;9.994;2022-12-10T03:58:27;25.40;;;11.50;;
4377;SDS011;2203;53.686;9.994;2022-12-10T04:00:52;24.23;;;11.77;;
4377;SDS011;2203;53.686;9.994;2022-12-10T04:03:17;23.00;;;11.30;;
4377;SDS011;2203;53.686;9.994;2022-12-10T04:05:43;24.40;;;11.10;;
4377;SDS011;2203;53.686;9.994;2022-12-10T04:08:08;25.83;;;12.13;;
4377;SDS011;2203;53.686;9.994;2022-12-10T04:10:37;26.93;;;11.83;;
4377;SDS011;2203;53.686;9.994;2022-12-10T04:13:03;19.40;;;9.53;;
4377;SDS011;2203;53.686;9.994;2022-12-10T04:15:47;19.17;;;8.93;;
4377;SDS011;2203;53.686;9.994;2022-12-10T04:18:31;21.30;;;9.90;;
4377;SDS011;2203;53.686;9.994;2022-12-10T04:20:56;21.03;;;9.57;;
4377;SDS011;2203;53.686;9.994;2022-12-10T04:23:40;23.70;;;10.23;;
4377;SDS011;2203;53.686;9.994;2022-12-10T04:26:24;22.17;;;10.00;;
4377;SDS011;2203;53.686;9.994;2022-12-10T04:29:08;20.40;;;9.63;;
4377;SDS011;2203;53.686;9.994;2022-12-10T04:31:34;21.43;;;10.13;;
4377;SDS011;2203;53.686;9.994;2022-12-10T04:33:59;23.30;;;10.30;;
4377;SDS011;2203;53.686;9.994;2022-12-10T04:36:24;18.10;;;9.53;;
4377;SDS011;2203;53.686;9.994;2022-12-10T04:38:50;19.60;;;10.47;;
4377;SDS011;2203;53.686;9.994;2022-12-10T04:41:15;20.23;;;9.13;;
4377;SDS011;2203;53.686;9.994;2022-12-10T04:43:41;21.10;;;10.13;;
4377;SDS011;2203;53.686;9.994;2022-12-10T04:46:07;20.80;;;10.23;;
4377;SDS011;2203;53.686;9.994;2022-12-10T04:48:33;23.17;;;12.07;;
4377;SDS011;2203;53.686;9.994;2022-12-10T04:50:59;25.13;;;9.30;;
4377;SDS011;2203;53.686;9.994;2022-12-10T04:53:24;20.17;;;9.97;;
4377;SDS011;2203;53.686;9.994;2022-12-10T04:55:49;16.77;;;9.10;;
4377;SDS011;2203;53.686;9.994;2022-12-10T04:58:15;17.93;;;9.10;;
4377;SDS011;2203;53.686;9.994;2022-12-10T05:00:40;18.37;;;8.60;;
4377;SDS011;2203;53.686;9.994;2022-12-10T05:03:06;21.40;;;10.30;;
4377;SDS011;2203;53.686;9.994;2022-12-10T05:05:33;19.20;;;8.90;;
4377;SDS011;2203;53.686;9.994;2022-12-10T05:07:59;19.20;;;9.10;;
4377;SDS011;2203;53.686;9.994;2022-12-10T05:10:24;22.33;;;9.07;;
4377;SDS011;2203;53.686;9.994;2022-12-10T05:12:50;21.77;;;9.50;;
4377;SDS011;2203;53.686;9.994;2022-12-10T05:15:15;19.03;;;9.30;;
4377;SDS011;2203;53.686;9.994;2022-12-10T05:17:40;18.03;;;9.13;;
4377;SDS011;2203;53.686;9.994;2022-12-10T05:20:06;18.80;;;9.03;;
4377;SDS011;2203;53.686;9.994;2022-12-10T05:22:32;19.30;;;9.70;;
4377;SDS011;2203;53.686;9.994;2022-12-10T05:25:16;19.43;;;9.07;;
4377;SDS011;2203;53.686;9.994;2022-12-10T05:27:42;18.50;;;9.77;;
4377;SDS011;2203;53.686;9.994;2022-12-10T05:30:08;20.50;;;9.17;;
4377;SDS011;2203;53.686;9.994;2022-12-10T05:32:35;18.67;;;9.00;;
4377;SDS011;2203;53.686;9.994;2022-12-10T05:35:01;26.27;;;9.80;;
4377;SDS011;2203;53.686;9.994;2022-12-10T05:37:27;17.93;;;8.43;;
4377;SDS011;2203;53.686;9.994;2022-12-10T05:39:52;17.30;;;8.83;;
4377;SDS011;2203;53.686;9.994;2022-12-10T05:42:18;15.67;;;8.90;;
4377;SDS011;2203;53.686;9.994;2022-12-10T05:44:43;16.03;;;8.23;;
4377;SDS011;2203;53.686;9.994;2022-12-10T05:47:08;21.33;;;8.80;;
4377;SDS011;2203;53.686;9.994;2022-12-10T05:49:34;19.47;;;9.03;;
4377;SDS011;2203;53.686;9.994;2022-12-10T05:51:59;23.57;;;9.67;;
4377;SDS011;2203;53.686;9.994;2022-12-10T05:54:24;18.87;;;9.57;;
4377;SDS011;2203;53.686;9.994;2022-12-10T05:56:50;22.57;;;9.03;;
4377;SDS011;2203;53.686;9.994;2022-12-10T05:59:15;18.10;;;9.40;;
4377;SDS011;2203;53.686;9.994;2022-12-10T06:01:41;17.93;;;9.00;;
4377;SDS011;2203;53.686;9.994;2022-12-10T06:04:06;21.20;;;10.60;;
4377;SDS011;2203;53.686;9.994;2022-12-10T06:06:33;17.67;;;9.50;;
4377;SDS011;2203;53.686;9.994;2022-12-10T06:09:00;17.73;;;8.93;;
4377;SDS011;2203;53.686;9.994;2022-12-10T06:11:26;21.93;;;9.80;;
4377;SDS011;2203;53.686;9.994;2022-12-10T06:13:52;18.63;;;10.40;;
4377;SDS011;2203;53.686;9.994;2022-12-10T06:16:19;17.53;;;9.40;;
4377;SDS011;2203;53.686;9.994;2022-12-10T06:18:45;20.40;;;9.73;;
4377;SDS011;2203;53.686;9.994;2022-12-10T06:21:12;17.80;;;10.13;;
4377;SDS011;2203;53.686;9.994;2022-12-10T06:23:39;18.03;;;10.60;;
4377;SDS011;2203;53.686;9.994;2022-12-10T06:26:10;18.13;;;9.90;;
4377;SDS011;2203;53.686;9.994;2022-12-10T06:28:39;15.97;;;8.67;;
4377;SDS011;2203;53.686;9.994;2022-12-10T06:31:05;16.77;;;9.20;;
4377;SDS011;2203;53.686;9.994;2022-12-10T06:33:31;19.53;;;9.03;;
4377;SDS011;2203;53.686;9.994;2022-12-10T06:35:56;17.50;;;9.83;;
4377;SDS011;2203;53.686;9.994;2022-12-10T06:38:22;20.90;;;10.27;;
4377;SDS011;2203;53.686;9.994;2022-12-10T06:40:47;17.63;;;9.40;;
4377;SDS011;2203;53.686;9.994;2022-12-10T06:43:12;17.93;;;8.63;;
4377;SDS011;2203;53.686;9.994;2022-12-10T06:45:38;16.57;;;8.70;;
4377;SDS011;2203;53.686;9.994;2022-12-10T06:48:05;16.43;;;8.47;;
4377;SDS011;2203;53.686;9.994;2022-12-10T06:50:30;16.10;;;8.20;;
4377;SDS011;2203;53.686;9.994;2022-12-10T06:52:55;15.00;;;8.20;;
4377;SDS011;2203;53.686;9.994;2022-12-10T06:55:21;20.33;;;8.60;;
4377;SDS011;2203;53.686;9.994;2022-12-10T06:57:46;17.87;;;9.10;;
4377;SDS011;2203;53.686;9.994;2022-12-10T07:00:12;15.97;;;9.13;;
4377;SDS011;2203;53.686;9.994;2022-12-10T07:02:38;19.97;;;9.40;;
4377;SDS011;2203;53.686;9.994;2022-12-10T07:05:03;21.30;;;9.43;;
4377;SDS011;2203;53.686;9.994;2022-12-10T07:07:29;19.67;;;9.17;;
4377;SDS011;2203;53.686;9.994;2022-12-10T07:09:54;16.87;;;8.97;;
4377;SDS011;2203;53.686;9.994;2022-12-10T07:12:19;15.80;;;8.50;;
4377;SDS011;2203;53.686;9.994;2022-12-10T07:14:45;19.00;;;9.77;;
4377;SDS011;2203;53.686;9.994;2022-12-10T07:17:10;16.10;;;8.93;;
4377;SDS011;2203;53.686;9.994;2022-12-10T07:19:36;15.67;;;8.53;;
4377;SDS011;2203;53.686;9.994;2022-12-10T07:22:01;17.00;;;9.50;;
4377;SDS011;2203;53.686;9.994;2022-12-10T07:24:26;18.10;;;9.47;;
4377;SDS011;2203;53.686;9.994;2022-12-10T07:26:52;17.00;;;8.63;;
4377;SDS011;2203;53.686;9.994;2022-12-10T07:29:18;15.73;;;8.13;;
4377;SDS011;2203;53.686;9.994;2022-12-10T07:31:46;19.93;;;8.77;;
4377;SDS011;2203;53.686;9.994;2022-12-10T07:34:13;14.90;;;7.60;;
4377;SDS011;2203;53.686;9.994;2022-12-10T07:36:39;17.33;;;9.10;;
4377;SDS011;2203;53.686;9.994;2022-12-10T07:39:06;18.10;;;9.87;;
4377;SDS011;2203;53.686;9.994;2022-12-10T07:41:33;23.13;;;10.10;;
4377;SDS011;2203;53.686;9.994;2022-12-10T07:44:00;19.07;;;10.13;;
4377;SDS011;2203;53.686;9.994;2022-12-10T07:46:27;17.57;;;10.00;;
4377;SDS011;2203;53.686;9.994;2022-12-10T07:48:54;17.93;;;8.77;;
4377;SDS011;2203;53.686;9.994;2022-12-10T07:51:20;17.00;;;8.83;;
4377;SDS011;2203;53.686;9.994;2022-12-10T07:53:46;16.90;;;9.50;;
4377;SDS011;2203;53.686;9.994;2022-12-10T07:56:12;15.60;;;9.53;;
4377;SDS011;2203;53.686;9.994;2022-12-10T07:58:40;16.90;;;9.50;;
4377;SDS011;2203;53.686;9.994;2022-12-10T08:01:07;17.30;;;9.40;;
4377;SDS011;2203;53.686;9.994;2022-12-10T08:03:34;14.87;;;8.57;;
4377;SDS011;2203;53.686;9.994;2022-12-10T08:06:00;14.00;;;8.23;;
4377;SDS011;2203;53.686;9.994;2022-12-10T08:08:27;13.07;;;8.20;;
4377;SDS011;2203;53.686;9.994;2022-12-10T08:10:52;12.57;;;8.17;;
4377;SDS011;2203;53.686;9.994;2022-12-10T08:13:19;18.87;;;10.17;;
4377;SDS011;2203;53.686;9.994;2022-12-10T08:15:44;16.27;;;9.23;;
4377;SDS011;2203;53.686;9.994;2022-12-10T08:18:10;16.37;;;8.50;;
4377;SDS011;2203;53.686;9.994;2022-12-10T08:20:35;15.87;;;9.43;;
4377;SDS011;2203;53.686;9.994;2022-12-10T08:23:00;14.63;;;7.77;;
4377;SDS011;2203;53.686;9.994;2022-12-10T08:25:26;13.37;;;7.67;;
4377;SDS011;2203;53.686;9.994;2022-12-10T08:27:52;14.93;;;8.67;;
4377;SDS011;2203;53.686;9.994;2022-12-10T08:30:17;19.37;;;9.00;;
4377;SDS011;2203;53.686;9.994;2022-12-10T08:32:42;13.07;;;8.43;;
4377;SDS011;2203;53.686;9.994;2022-12-10T08:35:08;17.90;;;9.47;;
4377;SDS011;2203;53.686;9.994;2022-12-10T08:37:33;18.60;;;8.83;;
4377;SDS011;2203;53.686;9.994;2022-12-10T08:39:58;16.50;;;8.93;;
4377;SDS011;2203;53.686;9.994;2022-12-10T08:42:24;17.83;;;9.40;;
4377;SDS011;2203;53.686;9.994;2022-12-10T08:44:49;13.13;;;7.77;;
4377;SDS011;2203;53.686;9.994;2022-12-10T08:47:15;12.63;;;7.57;;
4377;SDS011;2203;53.686;9.994;2022-12-10T08:49:41;15.70;;;8.10;;
4377;SDS011;2203;53.686;9.994;2022-12-10T08:52:06;10.70;;;6.97;;
4377;SDS011;2203;53.686;9.994;2022-12-10T08:54:32;12.00;;;6.90;;
4377;SDS011;2203;53.686;9.994;2022-12-10T08:56:57;10.10;;;6.20;;
4377;SDS011;2203;53.686;9.994;2022-12-10T08:59:23;15.17;;;6.90;;
4377;SDS011;2203;53.686;9.994;2022-12-10T09:01:48;15.60;;;7.70;;
4377;SDS011;2203;53.686;9.994;2022-12-10T09:04:13;15.20;;;8.07;;
4377;SDS011;2203;53.686;9.994;2022-12-10T09:06:40;15.67;;;7.53;;
4377;SDS011;2203;53.686;9.994;2022-12-10T09:09:06;12.70;;;7.73;;
4377;SDS011;2203;53.686;9.994;2022-12-10T09:11:32;12.50;;;7.50;;
4377;SDS011;2203;53.686;9.994;2022-12-10T09:13:59;14.53;;;8.03;;
4377;SDS011;2203;53.686;9.994;2022-12-10T09:16:29;15.00;;;8.63;;
4377;SDS011;2203;53.686;9.994;2022-12-10T09:18:58;14.17;;;7.40;;
4377;SDS011;2203;53.686;9.994;2022-12-10T09:21:24;11.80;;;7.17;;
4377;SDS011;2203;53.686;9.994;2022-12-10T09:23:50;15.47;;;7.63;;
4377;SDS011;2203;53.686;9.994;2022-12-10T09:26:16;15.83;;;8.87;;
4377;SDS011;2203;53.686;9.994;2022-12-10T09:28:43;16.60;;;8.57;;
4377;SDS011;2203;53.686;9.994;2022-12-10T09:31:09;18.90;;;9.23;;
4377;SDS011;2203;53.686;9.994;2022-12-10T09:33:35;18.07;;;9.63;;
4377;SDS011;2203;53.686;9.994;2022-12-10T09:36:04;22.30;;;9.43;;
4377;SDS011;2203;53.686;9.994;2022-12-10T09:38:33;18.33;;;9.80;;
4377;SDS011;2203;53.686;9.994;2022-12-10T09:41:00;17.37;;;9.77;;
4377;SDS011;2203;53.686;9.994;2022-12-10T09:43:28;15.97;;;8.27;;
4377;SDS011;2203;53.686;9.994;2022-12-10T09:48:47;18.00;;;9.87;;
4377;SDS011;2203;53.686;9.994;2022-12-10T09:51:34;15.90;;;8.83;;
4377;SDS011;2203;53.686;9.994;2022-12-10T09:54:02;17.67;;;8.43;;
4377;SDS011;2203;53.686;9.994;2022-12-10T09:56:31;16.37;;;9.07;;
4377;SDS011;2203;53.686;9.994;2022-12-10T09:59:00;14.83;;;7.80;;
4377;SDS011;2203;53.686;9.994;2022-12-10T10:01:29;15.23;;;8.57;;
4377;SDS011;2203;53.686;9.994;2022-12-10T10:03:56;18.83;;;8.57;;
4377;SDS011;2203;53.686;9.994;2022-12-10T10:06:21;14.13;;;8.27;;
4377;SDS011;2203;53.686;9.994;2022-12-10T10:08:51;12.97;;;7.40;;
4377;SDS011;2203;53.686;9.994;2022-12-10T10:11:20;18.20;;;8.90;;
4377;SDS011;2203;53.686;9.994;2022-12-10T10:13:55;31.67;;;8.53;;
4377;SDS011;2203;53.686;9.994;2022-12-10T10:16:58;16.50;;;6.67;;
4377;SDS011;2203;53.686;9.994;2022-12-10T10:19:30;23.50;;;12.17;;
4377;SDS011;2203;53.686;9.994;2022-12-10T10:21:58;26.03;;;11.67;;
4377;SDS011;2203;53.686;9.994;2022-12-10T10:24:33;18.63;;;10.13;;
4377;SDS011;2203;53.686;9.994;2022-12-10T10:27:12;14.77;;;8.47;;
4377;SDS011;2203;53.686;9.994;2022-12-10T10:29:49;14.63;;;8.43;;
4377;SDS011;2203;53.686;9.994;2022-12-10T10:32:19;13.87;;;7.50;;
4377;SDS011;2203;53.686;9.994;2022-12-10T10:34:46;12.90;;;7.20;;
4377;SDS011;2203;53.686;9.994;2022-12-10T10:37:59;13.63;;;7.40;;
4377;SDS011;2203;53.686;9.994;2022-12-10T10:40:06;16.87;;;8.57;;
4377;SDS011;2203;53.686;9.994;2022-12-10T10:42:38;17.10;;;9.30;;
4377;SDS011;2203;53.686;9.994;2022-12-10T10:45:28;13.77;;;7.50;;
4377;SDS011;2203;53.686;9.994;2022-12-10T10:50:42;14.53;;;7.87;;
4377;SDS011;2203;53.686;9.994;2022-12-10T10:53:32;17.53;;;9.47;;
4377;SDS011;2203;53.686;9.994;2022-12-10T10:58:58;16.90;;;8.83;;
4377;SDS011;2203;53.686;9.994;2022-12-10T11:01:42;16.90;;;9.60;;
4377;SDS011;2203;53.686;9.994;2022-12-10T11:04:08;18.43;;;8.90;;
4377;SDS011;2203;53.686;9.994;2022-12-10T11:06:34;14.73;;;8.50;;
4377;SDS011;2203;53.686;9.994;2022-12-10T11:08:59;14.93;;;7.60;;
4377;SDS011;2203;53.686;9.994;2022-12-10T11:14:12;17.50;;;8.63;;
4377;SDS011;2203;53.686;9.994;2022-12-10T11:16:46;15.10;;;8.10;;
4377;SDS011;2203;53.686;9.994;2022-12-10T11:19:22;16.80;;;9.00;;
4377;SDS011;2203;53.686;9.994;2022-12-10T11:21:48;16.50;;;9.93;;
4377;SDS011;2203;53.686;9.994;2022-12-10T11:24:15;18.00;;;9.73;;
4377;SDS011;2203;53.686;9.994;2022-12-10T11:26:54;18.33;;;8.73;;
4377;SDS011;2203;53.686;9.994;2022-12-10T11:35:09;20.43;;;9.07;;
4377;SDS011;2203;53.686;9.994;2022-12-10T11:38:08;19.13;;;10.20;;
4377;SDS011;2203;53.686;9.994;2022-12-10T11:54:40;15.97;;;9.40;;
4377;SDS011;2203;53.686;9.994;2022-12-10T12:00:15;20.17;;;10.00;;
4377;SDS011;2203;53.686;9.994;2022-12-10T12:03:01;21.20;;;9.80;;
4377;SDS011;2203;53.686;9.994;2022-12-10T12:14:31;20.10;;;10.00;;
4377;SDS011;2203;53.686;9.994;2022-12-10T12:19:50;16.80;;;9.20;;
4377;SDS011;2203;53.686;9.994;2022-12-10T12:22:25;18.40;;;8.67;;
4377;SDS011;2203;53.686;9.994;2022-12-10T12:25:00;17.70;;;8.90;;
4377;SDS011;2203;53.686;9.994;2022-12-10T12:27:32;24.83;;;9.63;;
4377;SDS011;2203;53.686;9.994;2022-12-10T12:30:05;15.60;;;8.70;;
4377;SDS011;2203;53.686;9.994;2022-12-10T12:32:58;14.50;;;7.77;;
4377;SDS011;2203;53.686;9.994;2022-12-10T12:35:38;17.77;;;8.30;;
4377;SDS011;2203;53.686;9.994;2022-12-10T12:46:05;17.37;;;10.07;;
4377;SDS011;2203;53.686;9.994;2022-12-10T12:51:12;14.63;;;7.70;;
4377;SDS011;2203;53.686;9.994;2022-12-10T12:53:44;15.30;;;8.77;;
4377;SDS011;2203;53.686;9.994;2022-12-10T12:56:17;15.80;;;8.60;;
4377;SDS011;2203;53.686;9.994;2022-12-10T13:01:53;13.77;;;7.83;;
4377;SDS011;2203;53.686;9.994;2022-12-10T13:04:23;17.77;;;9.03;;
4377;SDS011;2203;53.686;9.994;2022-12-10T13:09:46;13.30;;;7.33;;
4377;SDS011;2203;53.686;9.994;2022-12-10T13:15:34;14.47;;;8.00;;
4377;SDS011;2203;53.686;9.994;2022-12-10T13:20:45;15.13;;;8.43;;
4377;SDS011;2203;53.686;9.994;2022-12-10T13:28:31;16.97;;;9.13;;
4377;SDS011;2203;53.686;9.994;2022-12-10T13:33:45;14.03;;;7.67;;
4377;SDS011;2203;53.686;9.994;2022-12-10T13:36:12;14.83;;;7.80;;
4377;SDS011;2203;53.686;9.994;2022-12-10T13:38:41;15.00;;;8.87;;
4377;SDS011;2203;53.686;9.994;2022-12-10T13:41:18;15.17;;;8.10;;
4377;SDS011;2203;53.686;9.994;2022-12-10T13:44:21;14.70;;;8.73;;
4377;SDS011;2203;53.686;9.994;2022-12-10T13:47:05;17.20;;;8.70;;
4377;SDS011;2203;53.686;9.994;2022-12-10T13:49:52;14.53;;;7.27;;
4377;SDS011;2203;53.686;9.994;2022-12-10T13:52:22;20.27;;;10.37;;
4377;SDS011;2203;53.686;9.994;2022-12-10T13:55:01;19.00;;;8.77;;
4377;SDS011;2203;53.686;9.994;2022-12-10T13:57:34;15.37;;;8.73;;
4377;SDS011;2203;53.686;9.994;2022-12-10T14:06:24;15.37;;;7.90;;
4377;SDS011;2203;53.686;9.994;2022-12-10T14:08:55;14.13;;;7.70;;
4377;SDS011;2203;53.686;9.994;2022-12-10T14:11:31;16.10;;;8.67;;
4377;SDS011;2203;53.686;9.994;2022-12-10T14:14:00;18.20;;;9.00;;
4377;SDS011;2203;53.686;9.994;2022-12-10T14:16:28;16.07;;;8.13;;
4377;SDS011;2203;53.686;9.994;2022-12-10T14:19:05;22.20;;;10.03;;
4377;SDS011;2203;53.686;9.994;2022-12-10T14:21:33;16.67;;;8.60;;
4377;SDS011;2203;53.686;9.994;2022-12-10T14:24:00;19.93;;;9.67;;
4377;SDS011;2203;53.686;9.994;2022-12-10T14:26:27;14.70;;;8.23;;
4377;SDS011;2203;53.686;9.994;2022-12-10T14:29:08;14.10;;;7.80;;
4377;SDS011;2203;53.686;9.994;2022-12-10T14:31:44;25.67;;;9.10;;
4377;SDS011;2203;53.686;9.994;2022-12-10T14:34:12;28.17;;;9.70;;
4377;SDS011;2203;53.686;9.994;2022-12-10T14:36:47;24.60;;;11.00;;
4377;SDS011;2203;53.686;9.994;2022-12-10T14:39:19;33.83;;;10.83;;
4377;SDS011;2203;53.686;9.994;2022-12-10T14:41:50;22.23;;;10.80;;
4377;SDS011;2203;53.686;9.994;2022-12-10T14:44:17;21.07;;;9.70;;
4377;SDS011;2203;53.686;9.994;2022-12-10T14:46:43;20.10;;;10.57;;
4377;SDS011;2203;53.686;9.994;2022-12-10T14:49:13;19.50;;;10.10;;
4377;SDS011;2203;53.686;9.994;2022-12-10T14:51:41;17.53;;;9.97;;
4377;SDS011;2203;53.686;9.994;2022-12-10T14:54:22;21.03;;;10.30;;
4377;SDS011;2203;53.686;9.994;2022-12-10T14:56:49;19.40;;;11.00;;
4377;SDS011;2203;53.686;9.994;2022-12-10T14:59:18;22.50;;;10.30;;
4377;SDS011;2203;53.686;9.994;2022-12-10T15:01:48;20.00;;;10.30;;
4377;SDS011;2203;53.686;9.994;2022-12-10T15:04:16;15.00;;;8.53;;
4377;SDS011;2203;53.686;9.994;2022-12-10T15:06:42;21.53;;;10.70;;
4377;SDS011;2203;53.686;9.994;2022-12-10T15:09:20;20.00;;;11.00;;
4377;SDS011;2203;53.686;9.994;2022-12-10T15:11:53;20.57;;;10.00;;
4377;SDS011;2203;53.686;9.994;2022-12-10T15:14:20;19.03;;;9.50;;
4377;SDS011;2203;53.686;9.994;2022-12-10T15:16:46;19.47;;;10.30;;
4377;SDS011;2203;53.686;9.994;2022-12-10T15:19:21;18.53;;;9.93;;
4377;SDS011;2203;53.686;9.994;2022-12-10T15:21:47;18.70;;;9.40;;
4377;SDS011;2203;53.686;9.994;2022-12-10T15:24:21;16.30;;;9.10;;
4377;SDS011;2203;53.686;9.994;2022-12-10T15:26:50;17.00;;;9.77;;
4377;SDS011;2203;53.686;9.994;2022-12-10T15:31:55;19.47;;;9.77;;
4377;SDS011;2203;53.686;9.994;2022-12-10T15:34:25;15.00;;;8.60;;
4377;SDS011;2203;53.686;9.994;2022-12-10T15:36:55;27.67;;;11.40;;
4377;SDS011;2203;53.686;9.994;2022-12-10T15:39:24;24.33;;;11.40;;
4377;SDS011;2203;53.686;9.994;2022-12-10T15:49:42;20.67;;;10.90;;
4377;SDS011;2203;53.686;9.994;2022-12-10T15:52:18;20.90;;;11.10;;
4377;SDS011;2203;53.686;9.994;2022-12-10T15:54:48;23.10;;;11.07;;
4377;SDS011;2203;53.686;9.994;2022-12-10T15:57:19;14.30;;;8.83;;
4377;SDS011;2203;53.686;9.994;2022-12-10T15:59:46;22.90;;;10.50;;
4377;SDS011;2203;53.686;9.994;2022-12-10T16:05:22;18.40;;;9.87;;
4377;SDS011;2203;53.686;9.994;2022-12-10T16:07:50;21.73;;;9.33;;
4377;SDS011;2203;53.686;9.994;2022-12-10T16:10:18;17.20;;;9.80;;
4377;SDS011;2203;53.686;9.994;2022-12-10T16:12:45;20.07;;;10.80;;
4377;SDS011;2203;53.686;9.994;2022-12-10T16:15:18;19.63;;;11.17;;
4377;SDS011;2203;53.686;9.994;2022-12-10T16:17:45;21.57;;;10.80;;
4377;SDS011;2203;53.686;9.994;2022-12-10T16:20:21;22.90;;;11.60;;
4377;SDS011;2203;53.686;9.994;2022-12-10T16:22:51;25.30;;;11.60;;
4377;SDS011;2203;53.686;9.994;2022-12-10T16:25:17;18.97;;;10.80;;
4377;SDS011;2203;53.686;9.994;2022-12-10T16:27:42;17.47;;;10.03;;
4377;SDS011;2203;53.686;9.994;2022-12-10T16:30:12;20.77;;;10.40;;
4377;SDS011;2203;53.686;9.994;2022-12-10T16:32:38;19.93;;;11.20;;
4377;SDS011;2203;53.686;9.994;2022-12-10T16:35:04;20.90;;;10.67;;
4377;SDS011;2203;53.686;9.994;2022-12-10T16:37:29;23.13;;;10.57;;
4377;SDS011;2203;53.686;9.994;2022-12-10T16:39:54;20.40;;;11.03;;
4377;SDS011;2203;53.686;9.994;2022-12-10T16:42:20;24.33;;;11.03;;
4377;SDS011;2203;53.686;9.994;2022-12-10T16:44:45;18.33;;;9.07;;
4377;SDS011;2203;53.686;9.994;2022-12-10T16:47:11;18.90;;;11.17;;
4377;SDS011;2203;53.686;9.994;2022-12-10T16:49:37;22.90;;;10.80;;
4377;SDS011;2203;53.686;9.994;2022-12-10T16:52:02;20.27;;;10.60;;
4377;SDS011;2203;53.686;9.994;2022-12-10T16:54:29;22.43;;;11.37;;
4377;SDS011;2203;53.686;9.994;2022-12-10T16:56:54;22.67;;;10.57;;
4377;SDS011;2203;53.686;9.994;2022-12-10T16:59:20;21.37;;;11.40;;
4377;SDS011;2203;53.686;9.994;2022-12-10T17:01:45;17.40;;;10.07;;
4377;SDS011;2203;53.686;9.994;2022-12-10T17:04:10;26.47;;;13.03;;
4377;SDS011;2203;53.686;9.994;2022-12-10T17:06:36;26.57;;;11.60;;